createdAt,value
2017-07-30T00:00:35.588Z,0
2017-07-30T00:01:36.610Z,0
2017-07-30T00:02:36.386Z,0
2017-07-30T00:03:35.765Z,0
2017-07-30T00:04:35.435Z,0
2017-07-30T00:05:35.414Z,0
2017-07-30T00:06:36.663Z,0
2017-07-30T00:07:34.790Z,0
2017-07-30T00:08:35.089Z,0
2017-07-30T00:09:35.728Z,0
2017-07-30T00:10:37.161Z,0
2017-07-30T00:11:35.400Z,0
2017-07-30T00:12:35.738Z,0
2017-07-30T00:13:36.171Z,0
2017-07-30T00:14:35.419Z,0
2017-07-30T00:15:35.068Z,0
2017-07-30T00:16:35.385Z,0
2017-07-30T00:17:35.954Z,0
2017-07-30T00:18:35.699Z,0
2017-07-30T00:19:35.394Z,0
2017-07-30T00:20:35.687Z,0
2017-07-30T00:21:36.963Z,0
2017-07-30T00:22:35.368Z,0
2017-07-30T00:23:35.356Z,0
2017-07-30T00:24:35.047Z,0
2017-07-30T00:25:36.649Z,0
2017-07-30T00:26:35.073Z,0
2017-07-30T00:27:35.690Z,0
2017-07-30T00:28:35.661Z,0
2017-07-30T00:29:36.477Z,0
2017-07-30T00:30:35.646Z,0
2017-07-30T00:31:35.343Z,0
2017-07-30T00:32:36.160Z,0
2017-07-30T00:33:35.656Z,0
2017-07-30T00:34:35.664Z,0
2017-07-30T00:35:35.018Z,0
2017-07-30T00:36:36.972Z,0
2017-07-30T00:37:34.981Z,0
2017-07-30T00:38:34.978Z,0
2017-07-30T00:39:35.271Z,0
2017-07-30T00:40:36.037Z,0
2017-07-30T00:41:35.264Z,0
2017-07-30T00:42:35.318Z,0
2017-07-30T00:43:34.967Z,0
2017-07-30T00:44:35.075Z,0
2017-07-30T00:45:36.895Z,0
2017-07-30T00:46:35.296Z,0
2017-07-30T00:47:35.615Z,0
2017-07-30T00:48:35.265Z,0
2017-07-30T00:49:37.112Z,0
2017-07-30T00:50:34.616Z,0
2017-07-30T00:51:35.587Z,0
2017-07-30T00:52:35.251Z,0
2017-07-30T00:53:35.868Z,0
2017-07-30T00:54:35.244Z,0
2017-07-30T00:55:35.576Z,0
2017-07-30T00:56:35.249Z,0
2017-07-30T00:57:35.555Z,0
2017-07-30T00:58:34.938Z,0
2017-07-30T00:59:36.204Z,0
2017-07-30T01:00:36.209Z,0
2017-07-30T01:01:35.590Z,0
2017-07-30T01:02:35.222Z,0
2017-07-30T01:03:35.001Z,0
2017-07-30T01:04:35.534Z,0
2017-07-30T01:05:35.207Z,0
2017-07-30T01:06:36.308Z,0
2017-07-30T01:07:35.328Z,0
2017-07-30T01:08:35.199Z,0
2017-07-30T01:09:35.207Z,0
2017-07-30T01:10:35.413Z,0
2017-07-30T01:11:34.902Z,0
2017-07-30T01:12:35.920Z,0
2017-07-30T01:13:35.191Z,0
2017-07-30T01:14:34.910Z,0
2017-07-30T01:15:35.514Z,0
2017-07-30T01:16:35.174Z,0
2017-07-30T01:17:36.285Z,0
2017-07-30T01:18:35.768Z,0
2017-07-30T01:19:35.300Z,0
2017-07-30T01:20:34.839Z,0
2017-07-30T01:21:35.497Z,0
2017-07-30T01:22:35.490Z,0
2017-07-30T01:23:35.476Z,0
2017-07-30T01:24:36.196Z,0
2017-07-30T01:25:36.660Z,0
2017-07-30T01:26:36.174Z,0
2017-07-30T01:27:35.970Z,0
2017-07-30T01:28:35.450Z,0
2017-07-30T01:29:35.121Z,0
2017-07-30T01:30:34.800Z,0
2017-07-30T01:31:35.460Z,0
2017-07-30T01:32:36.031Z,0
2017-07-30T01:33:35.692Z,0
2017-07-30T01:34:35.530Z,0
2017-07-30T01:35:36.056Z,0
2017-07-30T01:36:36.667Z,0
2017-07-30T01:37:34.941Z,0
2017-07-30T01:38:35.440Z,0
2017-07-30T01:39:35.094Z,0
2017-07-30T01:40:35.419Z,0
2017-07-30T01:41:35.112Z,0
2017-07-30T01:42:36.571Z,0
2017-07-30T01:43:36.837Z,0
2017-07-30T01:44:35.216Z,0
2017-07-30T01:45:34.750Z,0
2017-07-30T01:46:35.399Z,0
2017-07-30T01:47:35.096Z,0
2017-07-30T01:48:35.413Z,0
2017-07-30T01:49:36.176Z,0
2017-07-30T01:50:35.993Z,0
2017-07-30T01:51:36.129Z,0
2017-07-30T01:52:35.086Z,0
2017-07-30T01:53:35.393Z,0
2017-07-30T01:54:35.367Z,0
2017-07-30T01:55:35.063Z,0
2017-07-30T01:56:35.371Z,0
2017-07-30T01:57:36.683Z,0
2017-07-30T01:58:36.653Z,0
2017-07-30T01:59:34.723Z,0
2017-07-30T02:00:35.367Z,0
2017-07-30T02:01:35.349Z,0
2017-07-30T02:02:35.332Z,0
2017-07-30T02:03:35.337Z,0
2017-07-30T02:04:36.365Z,0
2017-07-30T02:05:36.686Z,0
2017-07-30T02:06:36.152Z,0
2017-07-30T02:07:35.010Z,0
2017-07-30T02:08:35.311Z,0
2017-07-30T02:09:35.830Z,0
2017-07-30T02:10:35.304Z,0
2017-07-30T02:11:35.611Z,0
2017-07-30T02:12:36.084Z,0
2017-07-30T02:13:36.477Z,0
2017-07-30T02:14:34.972Z,0
2017-07-30T02:15:34.969Z,0
2017-07-30T02:16:36.498Z,0
2017-07-30T02:17:35.300Z,0
2017-07-30T02:18:34.967Z,0
2017-07-30T02:19:35.520Z,0
2017-07-30T02:20:34.971Z,0
2017-07-30T02:21:34.651Z,0
2017-07-30T02:22:34.652Z,0
2017-07-30T02:23:35.390Z,0
2017-07-30T02:24:36.554Z,0
2017-07-30T02:25:36.434Z,0
2017-07-30T02:26:35.265Z,0
2017-07-30T02:27:34.931Z,0
2017-07-30T02:28:34.616Z,0
2017-07-30T02:29:34.943Z,0
2017-07-30T02:30:34.934Z,0
2017-07-30T02:31:34.917Z,0
2017-07-30T02:32:35.229Z,0
2017-07-30T02:33:35.853Z,0
2017-07-30T02:34:35.865Z,0
2017-07-30T02:35:35.781Z,0
2017-07-30T02:36:34.908Z,0
2017-07-30T02:37:35.215Z,0
2017-07-30T02:38:34.588Z,0
2017-07-30T02:39:35.949Z,0
2017-07-30T02:40:35.211Z,0
2017-07-30T02:41:35.210Z,0
2017-07-30T02:42:35.464Z,0
2017-07-30T02:43:36.090Z,0
2017-07-30T02:44:35.281Z,0
2017-07-30T02:45:34.550Z,0
2017-07-30T02:46:35.200Z,0
2017-07-30T02:47:35.210Z,0
2017-07-30T02:48:35.229Z,0
2017-07-30T02:49:35.374Z,0
2017-07-30T02:50:35.354Z,0
2017-07-30T02:51:35.175Z,0
2017-07-30T02:52:34.531Z,0
2017-07-30T02:53:35.277Z,0
2017-07-30T02:54:34.527Z,0
2017-07-30T02:55:34.529Z,0
2017-07-30T02:56:35.764Z,4
2017-07-30T02:57:34.824Z,4
2017-07-30T02:58:35.149Z,0
2017-07-30T02:59:36.006Z,0
2017-07-30T03:00:34.841Z,4
2017-07-30T03:01:35.130Z,4
2017-07-30T03:02:34.511Z,4
2017-07-30T03:03:36.275Z,8
2017-07-30T03:04:35.142Z,4
2017-07-30T03:05:35.215Z,4
2017-07-30T03:06:34.824Z,8
2017-07-30T03:07:36.324Z,8
2017-07-30T03:08:34.817Z,12
2017-07-30T03:09:35.762Z,12
2017-07-30T03:10:35.104Z,12
2017-07-30T03:11:35.123Z,16
2017-07-30T03:12:34.818Z,16
2017-07-30T03:13:35.439Z,20
2017-07-30T03:14:35.653Z,24
2017-07-30T03:15:34.771Z,28
2017-07-30T03:16:35.098Z,28
2017-07-30T03:17:35.697Z,36
2017-07-30T03:18:35.090Z,40
2017-07-30T03:19:34.444Z,44
2017-07-30T03:20:34.783Z,48
2017-07-30T03:21:34.764Z,56
2017-07-30T03:22:34.749Z,64
2017-07-30T03:23:34.447Z,68
2017-07-30T03:24:35.071Z,76
2017-07-30T03:25:34.747Z,88
2017-07-30T03:26:35.056Z,100
2017-07-30T03:27:35.089Z,108
2017-07-30T03:28:34.747Z,120
2017-07-30T03:29:35.046Z,132
2017-07-30T03:30:34.725Z,144
2017-07-30T03:31:35.069Z,156
2017-07-30T03:32:34.111Z,172
2017-07-30T03:33:35.038Z,188
2017-07-30T03:34:35.023Z,200
2017-07-30T03:35:35.057Z,220
2017-07-30T03:36:34.715Z,240
2017-07-30T03:37:35.026Z,256
2017-07-30T03:38:34.046Z,276
2017-07-30T03:39:34.709Z,296
2017-07-30T03:40:35.027Z,316
2017-07-30T03:41:34.680Z,340
2017-07-30T03:42:34.351Z,360
2017-07-30T03:43:34.671Z,384
2017-07-30T03:44:34.988Z,404
2017-07-30T03:45:34.669Z,428
2017-07-30T03:46:34.981Z,452
2017-07-30T03:47:34.994Z,476
2017-07-30T03:48:34.972Z,500
2017-07-30T03:49:34.987Z,524
2017-07-30T03:50:34.641Z,552
2017-07-30T03:51:34.969Z,572
2017-07-30T03:52:34.677Z,600
2017-07-30T03:53:34.637Z,624
2017-07-30T03:54:34.632Z,652
2017-07-30T03:55:34.948Z,676
2017-07-30T03:56:34.977Z,700
2017-07-30T03:57:34.966Z,728
2017-07-30T03:58:34.955Z,752
2017-07-30T03:59:34.945Z,776
2017-07-30T04:00:34.309Z,800
2017-07-30T04:01:34.328Z,824
2017-07-30T04:02:34.602Z,848
2017-07-30T04:03:34.626Z,872
2017-07-30T04:04:34.585Z,896
2017-07-30T04:05:34.274Z,920
2017-07-30T04:06:34.914Z,948
2017-07-30T04:07:34.582Z,972
2017-07-30T04:08:34.585Z,996
2017-07-30T04:09:34.598Z,1016
2017-07-30T04:10:34.894Z,1044
2017-07-30T04:11:34.902Z,1064
2017-07-30T04:12:34.280Z,1084
2017-07-30T04:13:34.238Z,1108
2017-07-30T04:14:34.571Z,1128
2017-07-30T04:15:34.608Z,1152
2017-07-30T04:16:34.898Z,1172
2017-07-30T04:17:34.867Z,1188
2017-07-30T04:18:34.567Z,1212
2017-07-30T04:19:34.264Z,1236
2017-07-30T04:20:34.857Z,1256
2017-07-30T04:21:34.549Z,1276
2017-07-30T04:22:34.876Z,1300
2017-07-30T04:23:34.215Z,1320
2017-07-30T04:24:34.569Z,1340
2017-07-30T04:25:34.526Z,1360
2017-07-30T04:26:34.839Z,1380
2017-07-30T04:27:34.518Z,1404
2017-07-30T04:28:34.186Z,1424
2017-07-30T04:29:34.504Z,1440
2017-07-30T04:30:34.510Z,1464
2017-07-30T04:31:34.179Z,1488
2017-07-30T04:32:34.821Z,1508
2017-07-30T04:33:34.495Z,1532
2017-07-30T04:34:34.499Z,1556
2017-07-30T04:35:34.519Z,1580
2017-07-30T04:36:34.803Z,1608
2017-07-30T04:37:34.814Z,1632
2017-07-30T04:38:34.472Z,1652
2017-07-30T04:39:34.803Z,1668
2017-07-30T04:40:34.804Z,1684
2017-07-30T04:41:34.788Z,1704
2017-07-30T04:42:34.794Z,1716
2017-07-30T04:43:34.478Z,1732
2017-07-30T04:44:34.134Z,1752
2017-07-30T04:45:34.135Z,1768
2017-07-30T04:46:34.148Z,1784
2017-07-30T04:47:34.769Z,1800
2017-07-30T04:48:34.794Z,1812
2017-07-30T04:49:34.776Z,1828
2017-07-30T04:50:34.790Z,1836
2017-07-30T04:51:34.457Z,1852
2017-07-30T04:52:34.435Z,1868
2017-07-30T04:53:34.776Z,1880
2017-07-30T04:54:34.768Z,1892
2017-07-30T04:55:34.424Z,1900
2017-07-30T04:56:34.487Z,1916
2017-07-30T04:57:34.466Z,1924
2017-07-30T04:58:34.109Z,1936
2017-07-30T04:59:34.424Z,1944
2017-07-30T05:00:34.724Z,1952
2017-07-30T05:01:34.724Z,1964
2017-07-30T05:02:34.729Z,1972
2017-07-30T05:03:34.078Z,1980
2017-07-30T05:04:34.082Z,1992
2017-07-30T05:05:34.717Z,2000
2017-07-30T05:06:34.110Z,2012
2017-07-30T05:07:34.131Z,2028
2017-07-30T05:08:34.737Z,2040
2017-07-30T05:09:34.730Z,2056
2017-07-30T05:10:34.379Z,2072
2017-07-30T05:11:34.072Z,2080
2017-07-30T05:12:34.712Z,2096
2017-07-30T05:13:34.728Z,2108
2017-07-30T05:14:34.048Z,2120
2017-07-30T05:15:34.362Z,2132
2017-07-30T05:16:34.365Z,2152
2017-07-30T05:17:34.680Z,2156
2017-07-30T05:18:34.681Z,2164
2017-07-30T05:19:34.356Z,2184
2017-07-30T05:20:34.357Z,2188
2017-07-30T05:21:34.030Z,2208
2017-07-30T05:22:34.349Z,2212
2017-07-30T05:23:34.361Z,2228
2017-07-30T05:24:34.384Z,2236
2017-07-30T05:25:34.679Z,2256
2017-07-30T05:26:34.041Z,2268
2017-07-30T05:27:34.017Z,2292
2017-07-30T05:28:34.658Z,2312
2017-07-30T05:29:34.665Z,2320
2017-07-30T05:30:34.327Z,2332
2017-07-30T05:31:34.665Z,2348
2017-07-30T05:32:34.686Z,2356
2017-07-30T05:33:34.326Z,2364
2017-07-30T05:34:34.663Z,2376
2017-07-30T05:35:34.644Z,2384
2017-07-30T05:36:34.681Z,2396
2017-07-30T05:37:34.319Z,2400
2017-07-30T05:38:34.642Z,2404
2017-07-30T05:39:34.309Z,2420
2017-07-30T05:40:34.632Z,2436
2017-07-30T05:41:34.320Z,2436
2017-07-30T05:42:34.630Z,2452
2017-07-30T05:43:34.298Z,2472
2017-07-30T05:44:34.323Z,2488
2017-07-30T05:45:34.649Z,2500
2017-07-30T05:46:34.006Z,2508
2017-07-30T05:47:34.651Z,2520
2017-07-30T05:48:34.618Z,2540
2017-07-30T05:49:34.648Z,2540
2017-07-30T05:50:34.617Z,2548
2017-07-30T05:51:34.290Z,2560
2017-07-30T05:52:33.973Z,2560
2017-07-30T05:53:34.642Z,2560
2017-07-30T05:54:33.963Z,2576
2017-07-30T05:55:34.288Z,2592
2017-07-30T05:56:34.310Z,2592
2017-07-30T05:57:33.972Z,2596
2017-07-30T05:58:34.617Z,2612
2017-07-30T05:59:33.978Z,2620
2017-07-30T06:00:34.282Z,2632
2017-07-30T06:01:34.630Z,2628
2017-07-30T06:02:34.637Z,2640
2017-07-30T06:03:34.305Z,2656
2017-07-30T06:04:34.289Z,2664
2017-07-30T06:05:34.603Z,2676
2017-07-30T06:06:34.313Z,2684
2017-07-30T06:07:34.276Z,2696
2017-07-30T06:08:34.607Z,2704
2017-07-30T06:09:33.987Z,2696
2017-07-30T06:10:34.269Z,2696
2017-07-30T06:11:33.950Z,2708
2017-07-30T06:12:34.307Z,2716
2017-07-30T06:13:34.263Z,2736
2017-07-30T06:14:34.257Z,2740
2017-07-30T06:15:34.608Z,2740
2017-07-30T06:16:34.264Z,2752
2017-07-30T06:17:34.578Z,2760
2017-07-30T06:18:34.600Z,2760
2017-07-30T06:19:33.942Z,2760
2017-07-30T06:20:34.588Z,2768
2017-07-30T06:21:33.933Z,2788
2017-07-30T06:22:33.926Z,2792
2017-07-30T06:23:34.271Z,2776
2017-07-30T06:24:34.265Z,2796
2017-07-30T06:25:34.586Z,2804
2017-07-30T06:26:34.589Z,2804
2017-07-30T06:27:34.568Z,2800
2017-07-30T06:28:34.591Z,2812
2017-07-30T06:29:34.255Z,2804
2017-07-30T06:30:34.615Z,2832
2017-07-30T06:31:34.245Z,2836
2017-07-30T06:32:34.242Z,2856
2017-07-30T06:33:34.582Z,2912
2017-07-30T06:34:34.266Z,3688
2017-07-30T06:35:34.575Z,4712
2017-07-30T06:36:34.240Z,5136
2017-07-30T06:37:34.249Z,6016
2017-07-30T06:38:33.917Z,5396
2017-07-30T06:39:33.596Z,3476
2017-07-30T06:40:34.567Z,3552
2017-07-30T06:41:34.250Z,8916
2017-07-30T06:42:34.269Z,15076
2017-07-30T06:43:34.561Z,10440
2017-07-30T06:44:34.560Z,6496
2017-07-30T06:45:33.962Z,7672
2017-07-30T06:46:34.590Z,16012
2017-07-30T06:47:34.560Z,30720
2017-07-30T06:48:34.253Z,38080
2017-07-30T06:49:33.916Z,32608
2017-07-30T06:50:34.603Z,22368
2017-07-30T06:51:34.595Z,21184
2017-07-30T06:52:34.255Z,35616
2017-07-30T06:53:34.254Z,42720
2017-07-30T06:54:34.236Z,44640
2017-07-30T06:55:34.568Z,47136
2017-07-30T06:56:34.245Z,48192
2017-07-30T06:57:34.243Z,47008
2017-07-30T06:58:33.927Z,46112
2017-07-30T06:59:33.978Z,45952
2017-07-30T07:00:33.934Z,49440
2017-07-30T07:01:33.937Z,52160
2017-07-30T07:02:34.606Z,48928
2017-07-30T07:03:33.943Z,46880
2017-07-30T07:04:33.965Z,45984
2017-07-30T07:05:34.284Z,46560
2017-07-30T07:06:34.283Z,50080
2017-07-30T07:07:34.593Z,49312
2017-07-30T07:08:34.294Z,49600
2017-07-30T07:09:34.603Z,52256
2017-07-30T07:10:34.288Z,54848
2017-07-30T07:11:33.975Z,53216
2017-07-30T07:12:33.996Z,47072
2017-07-30T07:13:34.310Z,48064
2017-07-30T07:14:34.636Z,54656
2017-07-30T07:15:34.684Z,56864
2017-07-30T07:16:34.652Z,53088
2017-07-30T07:17:34.336Z,49600
2017-07-30T07:18:34.026Z,49664
2017-07-30T07:19:34.685Z,53376
2017-07-30T07:20:34.026Z,56384
2017-07-30T07:21:34.360Z,56448
2017-07-30T07:22:34.684Z,55296
2017-07-30T07:23:34.391Z,51712
2017-07-30T07:24:34.060Z,51552
2017-07-30T07:25:34.066Z,53984
2017-07-30T07:26:34.394Z,56352
2017-07-30T07:27:34.719Z,57344
2017-07-30T07:28:34.409Z,54592
2017-07-30T07:29:34.097Z,50624
2017-07-30T07:30:34.428Z,51328
2017-07-30T07:31:34.448Z,55392
2017-07-30T07:32:34.775Z,57728
2017-07-30T07:33:34.139Z,58144
2017-07-30T07:34:34.779Z,60448
2017-07-30T07:35:34.800Z,60960
2017-07-30T07:36:34.155Z,59584
2017-07-30T07:37:34.804Z,59232
2017-07-30T07:38:34.839Z,58336
2017-07-30T07:39:34.513Z,56704
2017-07-30T07:40:34.529Z,50112
2017-07-30T07:41:47.275Z,27104
2017-07-30T07:42:34.532Z,7696
2017-07-30T07:43:34.544Z,5344
2017-07-30T07:44:34.551Z,4888
2017-07-30T07:45:34.249Z,4600
2017-07-30T07:46:34.565Z,4392
2017-07-30T07:47:34.269Z,4248
2017-07-30T07:48:34.603Z,4140
2017-07-30T07:49:34.955Z,4036
2017-07-30T07:50:34.930Z,3940
2017-07-30T07:51:34.545Z,3876
2017-07-30T07:52:34.963Z,3792
2017-07-30T07:53:34.953Z,3748
2017-07-30T07:54:34.350Z,3716
2017-07-30T07:55:34.654Z,3680
2017-07-30T07:56:34.364Z,3664
2017-07-30T07:57:34.686Z,3652
2017-07-30T07:58:34.364Z,3636
2017-07-30T07:59:34.698Z,3624
2017-07-30T08:00:34.711Z,3584
2017-07-30T08:01:34.725Z,3560
2017-07-30T08:02:34.403Z,3544
2017-07-30T08:03:34.729Z,3536
2017-07-30T08:04:35.089Z,3524
2017-07-30T08:05:34.474Z,3516
2017-07-30T08:06:35.092Z,3500
2017-07-30T08:07:34.783Z,3520
2017-07-30T08:08:35.083Z,3536
2017-07-30T08:09:35.113Z,3552
2017-07-30T08:10:35.122Z,3572
2017-07-30T08:11:34.810Z,3592
2017-07-30T08:12:34.796Z,3592
2017-07-30T08:13:35.123Z,3636
2017-07-30T08:14:35.176Z,3696
2017-07-30T08:15:35.134Z,3728
2017-07-30T08:16:35.148Z,3760
2017-07-30T08:17:35.208Z,3780
2017-07-30T08:18:34.517Z,3808
2017-07-30T08:19:34.854Z,3824
2017-07-30T08:20:34.864Z,3844
2017-07-30T08:21:35.172Z,3860
2017-07-30T08:22:35.225Z,3844
2017-07-30T08:23:34.891Z,3816
2017-07-30T08:24:35.186Z,3800
2017-07-30T08:25:35.212Z,3800
2017-07-30T08:26:34.563Z,3808
2017-07-30T08:27:34.890Z,3812
2017-07-30T08:28:35.233Z,3784
2017-07-30T08:29:34.578Z,3788
2017-07-30T08:30:35.229Z,3804
2017-07-30T08:31:35.237Z,3856
2017-07-30T08:32:35.252Z,3888
2017-07-30T08:33:34.642Z,3924
2017-07-30T08:34:34.946Z,3932
2017-07-30T08:35:34.928Z,3928
2017-07-30T08:36:35.309Z,3924
2017-07-30T08:37:35.283Z,3916
2017-07-30T08:38:34.942Z,3912
2017-07-30T08:39:34.952Z,3904
2017-07-30T08:40:35.273Z,3904
2017-07-30T08:41:34.969Z,3912
2017-07-30T08:42:35.299Z,3936
2017-07-30T08:43:35.305Z,3948
2017-07-30T08:44:35.335Z,3956
2017-07-30T08:45:35.316Z,3976
2017-07-30T08:46:35.318Z,4004
2017-07-30T08:47:35.009Z,4044
2017-07-30T08:48:35.329Z,4064
2017-07-30T08:49:35.355Z,4104
2017-07-30T08:50:35.315Z,4120
2017-07-30T08:51:35.368Z,4132
2017-07-30T08:52:34.710Z,4136
2017-07-30T08:53:35.331Z,4156
2017-07-30T08:54:35.032Z,4164
2017-07-30T08:55:35.022Z,4144
2017-07-30T08:56:34.721Z,4116
2017-07-30T08:57:35.044Z,4096
2017-07-30T08:58:34.718Z,4084
2017-07-30T08:59:35.035Z,4108
2017-07-30T09:00:35.075Z,4136
2017-07-30T09:01:35.064Z,4140
2017-07-30T09:02:35.064Z,4152
2017-07-30T09:03:35.374Z,4156
2017-07-30T09:04:35.389Z,4180
2017-07-30T09:05:35.077Z,4192
2017-07-30T09:06:35.392Z,4168
2017-07-30T09:07:35.412Z,4116
2017-07-30T09:08:35.396Z,4100
2017-07-30T09:09:35.401Z,4092
2017-07-30T09:10:35.410Z,4076
2017-07-30T09:11:35.412Z,4084
2017-07-30T09:12:35.415Z,4080
2017-07-30T09:13:35.098Z,4080
2017-07-30T09:14:35.422Z,4084
2017-07-30T09:15:35.431Z,4108
2017-07-30T09:16:35.112Z,4132
2017-07-30T09:17:34.498Z,4172
2017-07-30T09:18:35.459Z,4176
2017-07-30T09:19:35.476Z,4188
2017-07-30T09:20:35.458Z,4252
2017-07-30T09:21:35.465Z,4424
2017-07-30T09:22:35.462Z,4484
2017-07-30T09:23:35.482Z,4348
2017-07-30T09:24:35.471Z,4196
2017-07-30T09:25:35.475Z,4100
2017-07-30T09:26:35.159Z,4076
2017-07-30T09:27:34.843Z,4060
2017-07-30T09:28:35.485Z,4060
2017-07-30T09:29:34.876Z,4072
2017-07-30T09:30:35.185Z,4048
2017-07-30T09:31:35.185Z,4016
2017-07-30T09:32:35.204Z,3972
2017-07-30T09:33:35.409Z,3924
2017-07-30T09:34:35.518Z,3888
2017-07-30T09:35:35.530Z,3936
2017-07-30T09:36:35.527Z,3972
2017-07-30T09:37:34.891Z,4012
2017-07-30T09:38:35.215Z,4096
2017-07-30T09:39:35.220Z,4180
2017-07-30T09:40:34.906Z,4452
2017-07-30T09:41:35.243Z,4808
2017-07-30T09:42:35.592Z,5044
2017-07-30T09:43:35.256Z,5384
2017-07-30T09:44:35.245Z,5728
2017-07-30T09:45:35.591Z,5784
2017-07-30T09:46:35.575Z,5488
2017-07-30T09:47:35.271Z,5036
2017-07-30T09:48:35.297Z,5340
2017-07-30T09:49:35.269Z,6188
2017-07-30T09:50:35.301Z,6524
2017-07-30T09:51:34.980Z,6492
2017-07-30T09:52:35.606Z,6252
2017-07-30T09:53:35.622Z,6128
2017-07-30T09:54:35.311Z,6188
2017-07-30T09:55:35.643Z,6160
2017-07-30T09:56:35.628Z,5948
2017-07-30T09:57:35.324Z,5924
2017-07-30T09:58:35.635Z,5912
2017-07-30T09:59:35.325Z,5760
2017-07-30T10:00:35.652Z,5708
2017-07-30T10:01:35.010Z,5580
2017-07-30T10:02:35.660Z,5600
2017-07-30T10:03:35.022Z,5700
2017-07-30T10:04:35.380Z,6088
2017-07-30T10:05:35.353Z,6180
2017-07-30T10:06:35.679Z,7032
2017-07-30T10:07:35.362Z,6928
2017-07-30T10:08:35.713Z,6840
2017-07-30T10:09:35.692Z,6348
2017-07-30T10:10:35.699Z,6044
2017-07-30T10:11:35.403Z,5780
2017-07-30T10:12:35.392Z,5200
2017-07-30T10:13:35.399Z,4928
2017-07-30T10:14:35.738Z,4696
2017-07-30T10:15:35.411Z,4452
2017-07-30T10:16:35.419Z,4328
2017-07-30T10:17:35.736Z,4172
2017-07-30T10:18:35.751Z,4348
2017-07-30T10:19:35.433Z,4672
2017-07-30T10:20:35.125Z,4472
2017-07-30T10:21:35.777Z,6116
2017-07-30T10:22:35.781Z,8100
2017-07-30T10:23:35.458Z,7140
2017-07-30T10:24:35.781Z,6868
2017-07-30T10:25:35.171Z,4860
2017-07-30T10:26:35.488Z,4224
2017-07-30T10:27:35.475Z,4092
2017-07-30T10:28:35.480Z,3404
2017-07-30T10:29:35.502Z,3664
2017-07-30T10:30:35.502Z,3884
2017-07-30T10:31:35.496Z,4032
2017-07-30T10:32:35.821Z,4176
2017-07-30T10:33:35.834Z,4548
2017-07-30T10:34:35.510Z,3884
2017-07-30T10:35:35.197Z,3580
2017-07-30T10:36:35.853Z,3508
2017-07-30T10:37:35.876Z,3444
2017-07-30T10:38:35.857Z,3412
2017-07-30T10:39:35.879Z,3508
2017-07-30T10:40:35.892Z,3872
2017-07-30T10:41:35.880Z,4052
2017-07-30T10:42:35.880Z,3880
2017-07-30T10:43:35.892Z,4256
2017-07-30T10:44:35.584Z,4436
2017-07-30T10:45:35.892Z,4444
2017-07-30T10:46:35.902Z,4520
2017-07-30T10:47:34.953Z,4324
2017-07-30T10:48:35.916Z,4180
2017-07-30T10:49:35.596Z,4044
2017-07-30T10:50:35.623Z,3788
2017-07-30T10:51:35.937Z,3720
2017-07-30T10:52:34.972Z,3944
2017-07-30T10:53:35.616Z,3596
2017-07-30T10:54:35.935Z,3548
2017-07-30T10:55:35.976Z,3472
2017-07-30T10:56:35.959Z,3480
2017-07-30T10:57:35.958Z,3616
2017-07-30T10:58:36.026Z,3644
2017-07-30T10:59:35.644Z,4004
2017-07-30T11:00:35.663Z,4084
2017-07-30T11:01:35.356Z,4816
2017-07-30T11:02:35.681Z,5648
2017-07-30T11:03:35.366Z,5968
2017-07-30T11:04:36.000Z,6700
2017-07-30T11:05:35.680Z,6208
2017-07-30T11:06:35.366Z,5552
2017-07-30T11:07:35.706Z,6712
2017-07-30T11:08:36.018Z,6964
2017-07-30T11:09:36.044Z,6356
2017-07-30T11:10:36.024Z,6820
2017-07-30T11:11:35.748Z,5252
2017-07-30T11:12:36.052Z,4644
2017-07-30T11:13:36.048Z,4472
2017-07-30T11:14:35.739Z,5296
2017-07-30T11:15:35.735Z,6348
2017-07-30T11:16:35.427Z,5232
2017-07-30T11:17:35.755Z,5912
2017-07-30T11:18:35.432Z,5476
2017-07-30T11:19:35.760Z,4784
2017-07-30T11:20:36.121Z,4860
2017-07-30T11:21:36.107Z,5244
2017-07-30T11:22:35.805Z,5956
2017-07-30T11:23:35.462Z,6624
2017-07-30T11:24:35.797Z,6800
2017-07-30T11:25:35.799Z,7676
2017-07-30T11:26:35.488Z,5720
2017-07-30T11:27:35.818Z,4496
2017-07-30T11:28:35.822Z,4068
2017-07-30T11:29:35.815Z,5032
2017-07-30T11:30:36.162Z,4328
2017-07-30T11:31:35.522Z,3340
2017-07-30T11:32:35.841Z,3116
2017-07-30T11:33:35.850Z,3468
2017-07-30T11:34:35.529Z,4584
2017-07-30T11:35:35.561Z,5272
2017-07-30T11:36:35.859Z,5048
2017-07-30T11:37:35.865Z,5360
2017-07-30T11:38:35.875Z,6960
2017-07-30T11:39:36.196Z,6960
2017-07-30T11:40:36.217Z,6524
2017-07-30T11:41:36.215Z,5804
2017-07-30T11:42:36.235Z,4448
2017-07-30T11:43:35.591Z,3964
2017-07-30T11:44:35.913Z,4468
2017-07-30T11:45:35.927Z,5416
2017-07-30T11:46:36.276Z,5796
2017-07-30T11:47:35.934Z,4752
2017-07-30T11:48:36.253Z,4152
2017-07-30T11:49:36.268Z,3760
2017-07-30T11:50:35.625Z,3736
2017-07-30T11:51:36.266Z,4444
2017-07-30T11:52:35.633Z,4132
2017-07-30T11:53:35.994Z,3772
2017-07-30T11:54:36.055Z,3432
2017-07-30T11:55:35.668Z,4056
2017-07-30T11:56:35.656Z,5076
2017-07-30T11:57:36.318Z,5676
2017-07-30T11:58:35.994Z,6180
2017-07-30T11:59:35.694Z,6428
2017-07-30T12:00:36.338Z,5332
2017-07-30T12:01:36.028Z,4348
2017-07-30T12:02:36.010Z,4708
2017-07-30T12:03:36.376Z,5108
2017-07-30T12:04:36.024Z,4920
2017-07-30T12:05:35.710Z,5048
2017-07-30T12:06:35.717Z,5012
2017-07-30T12:07:36.043Z,5080
2017-07-30T12:08:36.411Z,5208
2017-07-30T12:09:36.374Z,6048
2017-07-30T12:10:36.380Z,5516
2017-07-30T12:11:36.393Z,5868
2017-07-30T12:12:36.410Z,5164
2017-07-30T12:13:35.764Z,3540
2017-07-30T12:14:35.770Z,3660
2017-07-30T12:15:36.445Z,3816
2017-07-30T12:16:36.102Z,3868
2017-07-30T12:17:36.425Z,3492
2017-07-30T12:18:35.811Z,3544
2017-07-30T12:19:35.813Z,3892
2017-07-30T12:20:36.466Z,3924
2017-07-30T12:21:36.131Z,3520
2017-07-30T12:22:36.457Z,3336
2017-07-30T12:23:36.143Z,3244
2017-07-30T12:24:36.489Z,3132
2017-07-30T12:25:36.524Z,3036
2017-07-30T12:26:36.162Z,3012
2017-07-30T12:27:36.200Z,2944
2017-07-30T12:28:36.525Z,2916
2017-07-30T12:29:36.500Z,2912
2017-07-30T12:30:36.514Z,2904
2017-07-30T12:31:36.563Z,2932
2017-07-30T12:32:35.879Z,2936
2017-07-30T12:33:36.522Z,2936
2017-07-30T12:34:36.216Z,2928
2017-07-30T12:35:36.532Z,2932
2017-07-30T12:36:36.214Z,2936
2017-07-30T12:37:36.242Z,2952
2017-07-30T12:38:36.266Z,2948
2017-07-30T12:39:35.937Z,2968
2017-07-30T12:40:36.244Z,2988
2017-07-30T12:41:36.576Z,2992
2017-07-30T12:42:36.263Z,2980
2017-07-30T12:43:35.958Z,3000
2017-07-30T12:44:36.587Z,3040
2017-07-30T12:45:36.285Z,3512
2017-07-30T12:46:35.693Z,3268
2017-07-30T12:47:35.960Z,3388
2017-07-30T12:48:36.644Z,3184
2017-07-30T12:49:36.298Z,3232
2017-07-30T12:50:36.636Z,3176
2017-07-30T12:51:36.641Z,3124
2017-07-30T12:52:36.325Z,3108
2017-07-30T12:53:36.007Z,3100
2017-07-30T12:54:36.322Z,3080
2017-07-30T12:55:36.030Z,3084
2017-07-30T12:56:36.334Z,3080
2017-07-30T12:57:36.673Z,3108
2017-07-30T12:58:36.665Z,3092
2017-07-30T12:59:36.671Z,3100
2017-07-30T13:00:36.381Z,3164
2017-07-30T13:01:36.048Z,3176
2017-07-30T13:02:36.372Z,3184
2017-07-30T13:03:35.734Z,3244
2017-07-30T13:04:36.701Z,3216
2017-07-30T13:05:36.714Z,3216
2017-07-30T13:06:36.710Z,3204
2017-07-30T13:07:36.121Z,3204
2017-07-30T13:08:36.083Z,3208
2017-07-30T13:09:36.087Z,3220
2017-07-30T13:10:36.758Z,3224
2017-07-30T13:11:36.746Z,3236
2017-07-30T13:12:36.443Z,3244
2017-07-30T13:13:36.138Z,3248
2017-07-30T13:14:36.785Z,3244
2017-07-30T13:15:36.783Z,3244
2017-07-30T13:16:36.787Z,3240
2017-07-30T13:17:36.473Z,3236
2017-07-30T13:18:36.830Z,3240
2017-07-30T13:19:36.462Z,3264
2017-07-30T13:20:36.791Z,3276
2017-07-30T13:21:36.793Z,3292
2017-07-30T13:22:36.808Z,3308
2017-07-30T13:23:36.517Z,3320
2017-07-30T13:24:36.814Z,3336
2017-07-30T13:25:36.817Z,3356
2017-07-30T13:26:36.505Z,3376
2017-07-30T13:27:36.839Z,3372
2017-07-30T13:28:36.874Z,3388
2017-07-30T13:29:35.887Z,3404
2017-07-30T13:30:36.846Z,3412
2017-07-30T13:31:36.533Z,3420
2017-07-30T13:32:36.226Z,3416
2017-07-30T13:33:36.260Z,3412
2017-07-30T13:34:36.562Z,3448
2017-07-30T13:35:36.878Z,3480
2017-07-30T13:36:36.890Z,3472
2017-07-30T13:37:36.571Z,3456